Time;durP1;ratioP1;P1;durP2;ratioP2;P2;SDS_P1;SDS_P2;PMS_P1;PMS_P2;Temp;Humidity;BMP_temperature;BMP_pressure;BME280_temperature;BME280_humidity;BME280_pressure;Samples;Min_cycle;Max_cycle;Signal;HPM_P1;HPM_P2
2023/06/05 00:00:16;;;;;;;1.55;0.80;;;11.80;99.90;;;;;;5079326;28;20052;-76
2023/06/05 00:02:43;;;;;;;1.40;1.00;;;11.90;99.90;;;;;;5079446;28;20058;-76
2023/06/05 00:05:10;;;;;;;3.22;1.20;;;11.90;99.90;;;;;;5060995;28;20126;-76
2023/06/05 00:07:37;;;;;;;1.48;0.80;;;11.90;99.90;;;;;;5079100;28;20052;-77
2023/06/05 00:10:07;;;;;;;1.70;1.08;;;11.90;99.90;;;;;;5079302;28;20105;-76
2023/06/05 00:12:35;;;;;;;1.48;0.93;;;11.90;99.90;;;;;;5079556;28;20048;-76
2023/06/05 00:15:02;;;;;;;1.73;1.05;;;11.90;99.90;;;;;;5062200;28;20056;-76
2023/06/05 00:17:30;;;;;;;1.33;1.05;;;12.00;99.90;;;;;;5078743;28;20143;-76
2023/06/05 00:19:59;;;;;;;2.67;1.40;;;12.00;99.90;;;;;;5077570;28;20071;-77
2023/06/05 00:22:28;;;;;;;1.55;1.00;;;12.00;99.90;;;;;;5079250;28;20052;-76
2023/06/05 00:24:55;;;;;;;1.83;1.10;;;12.10;99.90;;;;;;5062901;28;20067;-76
2023/06/05 00:27:22;;;;;;;1.00;0.90;;;12.00;99.90;;;;;;5078959;28;20047;-77
2023/06/05 00:29:49;;;;;;;1.63;0.80;;;12.00;99.90;;;;;;5078993;28;20083;-76
2023/06/05 00:32:16;;;;;;;2.30;1.23;;;12.00;99.90;;;;;;5079322;28;20399;-76
2023/06/05 00:34:43;;;;;;;2.38;1.27;;;12.00;99.90;;;;;;5062054;28;20416;-76
2023/06/05 00:37:11;;;;;;;1.48;1.15;;;11.90;99.90;;;;;;5079687;28;20063;-76
2023/06/05 00:39:38;;;;;;;1.10;0.88;;;11.90;99.90;;;;;;5078917;28;20483;-76
2023/06/05 00:42:07;;;;;;;1.33;1.10;;;11.90;99.90;;;;;;5078997;28;20059;-76
2023/06/05 00:44:35;;;;;;;2.28;1.20;;;11.80;99.90;;;;;;5062250;28;20080;-76
2023/06/05 00:47:01;;;;;;;1.88;1.40;;;11.80;99.90;;;;;;5062095;28;20143;-76
2023/06/05 00:49:28;;;;;;;1.33;1.10;;;11.80;99.90;;;;;;5077050;28;20549;-76
2023/06/05 00:51:55;;;;;;;1.75;1.15;;;11.80;99.90;;;;;;5078457;28;20798;-76
2023/06/05 00:54:22;;;;;;;1.40;1.05;;;11.80;99.90;;;;;;5078434;28;20495;-76
2023/06/05 00:56:49;;;;;;;1.85;1.00;;;11.80;99.90;;;;;;5080093;28;20480;-76
2023/06/05 00:59:16;;;;;;;2.17;1.10;;;11.80;99.90;;;;;;5078542;28;20052;-76
2023/06/05 01:01:43;;;;;;;1.67;1.13;;;11.70;99.90;;;;;;5078947;28;20056;-76
2023/06/05 01:04:10;;;;;;;1.90;1.15;;;11.70;99.90;;;;;;5077041;28;20090;-76
2023/06/05 01:06:40;;;;;;;2.10;1.30;;;11.70;99.90;;;;;;5062248;28;20052;-76
2023/06/05 01:09:10;;;;;;;1.55;1.02;;;11.70;99.90;;;;;;5079063;28;20052;-76
2023/06/05 01:11:37;;;;;;;1.30;1.10;;;11.70;99.90;;;;;;5062707;28;20044;-76
2023/06/05 01:14:08;;;;;;;2.22;0.90;;;11.60;99.90;;;;;;5080107;28;20835;-76
2023/06/05 01:16:36;;;;;;;2.05;1.45;;;11.60;99.90;;;;;;5061877;28;20487;-76
2023/06/05 01:19:03;;;;;;;2.45;1.38;;;11.60;99.90;;;;;;5060980;28;20723;-76
2023/06/05 01:21:31;;;;;;;2.03;1.30;;;11.50;99.90;;;;;;5078229;28;20060;-76
2023/06/05 01:24:01;;;;;;;2.20;1.20;;;11.50;99.90;;;;;;5079145;28;20386;-76
2023/06/05 01:26:40;;;;;;;1.70;1.30;;;11.40;99.90;;;;;;5082578;28;20083;-76
2023/06/05 01:29:07;;;;;;;2.15;1.10;;;11.40;99.90;;;;;;5082069;28;20051;-76
2023/06/05 01:31:36;;;;;;;2.30;1.40;;;11.50;99.90;;;;;;5066460;28;20139;-77
2023/06/05 01:34:07;;;;;;;2.30;1.00;;;11.50;99.90;;;;;;5051597;28;20115;-76
2023/06/05 01:36:34;;;;;;;1.77;1.20;;;11.40;99.90;;;;;;5065230;28;20045;-76
2023/06/05 01:39:01;;;;;;;1.05;0.90;;;11.40;99.90;;;;;;5068075;28;20056;-76
2023/06/05 01:41:27;;;;;;;2.20;1.17;;;11.50;99.90;;;;;;5086014;28;20162;-76
2023/06/05 01:43:54;;;;;;;1.88;0.90;;;11.50;99.90;;;;;;5061396;28;20044;-77
2023/06/05 01:46:21;;;;;;;1.30;0.90;;;11.50;99.90;;;;;;5049692;28;20148;-76
2023/06/05 01:48:48;;;;;;;0.73;0.73;;;11.60;99.90;;;;;;5054733;28;20048;-77
2023/06/05 01:51:15;;;;;;;2.10;1.10;;;11.60;99.90;;;;;;5065859;28;20056;-77
2023/06/05 01:53:42;;;;;;;1.95;1.02;;;11.50;99.90;;;;;;5072419;28;20127;-76
2023/06/05 01:56:09;;;;;;;2.50;1.23;;;11.50;99.90;;;;;;5085613;28;20087;-77
2023/06/05 01:58:36;;;;;;;2.83;1.33;;;11.40;99.90;;;;;;5085116;28;20052;-77
2023/06/05 02:01:05;;;;;;;1.98;1.40;;;11.40;99.90;;;;;;5085606;28;20047;-77
2023/06/05 02:03:32;;;;;;;3.33;1.38;;;11.40;99.90;;;;;;5068328;28;20044;-77
2023/06/05 02:06:00;;;;;;;1.73;0.98;;;11.40;99.90;;;;;;5084412;28;20084;-76
2023/06/05 02:08:27;;;;;;;1.40;1.05;;;11.50;99.90;;;;;;5068173;28;20044;-76
2023/06/05 02:10:54;;;;;;;2.15;1.25;;;11.60;99.90;;;;;;5087106;28;20044;-77
2023/06/05 02:13:23;;;;;;;2.45;1.30;;;11.60;99.90;;;;;;5084462;28;20052;-77
2023/06/05 02:15:55;;;;;;;1.23;0.90;;;11.60;99.90;;;;;;5085335;28;20044;-76
2023/06/05 02:18:25;;;;;;;2.93;1.60;;;11.60;99.90;;;;;;5084732;28;20085;-77
2023/06/05 02:20:56;;;;;;;1.90;1.20;;;11.50;99.90;;;;;;5084228;28;20055;-77
2023/06/05 02:23:23;;;;;;;2.17;1.60;;;11.40;99.90;;;;;;5084605;28;20108;-77
2023/06/05 02:25:50;;;;;;;2.13;1.25;;;11.40;99.90;;;;;;5085075;28;20051;-76
2023/06/05 02:28:16;;;;;;;1.48;0.90;;;11.50;99.90;;;;;;5085268;28;20063;-77
2023/06/05 02:30:44;;;;;;;1.77;1.10;;;11.50;99.90;;;;;;5068501;28;20048;-77
2023/06/05 02:33:12;;;;;;;1.33;0.90;;;11.60;99.90;;;;;;5067585;28;20568;-76
2023/06/05 02:35:39;;;;;;;1.85;1.25;;;11.60;99.90;;;;;;5084387;28;20101;-76
2023/06/05 02:38:08;;;;;;;2.17;1.48;;;11.60;99.90;;;;;;5068223;28;20101;-77
2023/06/05 02:40:34;;;;;;;1.83;1.10;;;11.60;99.90;;;;;;5086641;28;20117;-76
2023/06/05 02:43:02;;;;;;;2.30;1.33;;;11.50;99.90;;;;;;5086249;28;20056;-77
2023/06/05 02:45:29;;;;;;;2.97;1.45;;;11.50;99.90;;;;;;5086179;28;20574;-76
2023/06/05 02:47:56;;;;;;;2.30;1.25;;;11.50;99.90;;;;;;5084222;28;20105;-76
2023/06/05 02:50:23;;;;;;;2.08;1.45;;;11.40;99.90;;;;;;5084386;28;20060;-76
2023/06/05 02:52:50;;;;;;;1.17;1.08;;;11.40;99.90;;;;;;5084739;28;20055;-77
2023/06/05 02:55:17;;;;;;;3.40;1.70;;;11.50;99.90;;;;;;5084976;28;20507;-76
2023/06/05 02:57:44;;;;;;;1.75;1.27;;;11.50;99.90;;;;;;5084705;28;20381;-76
2023/06/05 03:00:14;;;;;;;1.92;1.20;;;11.50;99.90;;;;;;5084520;28;20052;-76
2023/06/05 03:02:41;;;;;;;2.03;1.10;;;11.50;99.90;;;;;;5084524;28;20051;-76
2023/06/05 03:05:08;;;;;;;1.40;1.10;;;11.50;99.90;;;;;;5082911;28;20058;-76
2023/06/05 03:07:36;;;;;;;1.42;1.17;;;11.50;99.90;;;;;;5067183;28;20048;-76
2023/06/05 03:10:03;;;;;;;1.98;1.20;;;11.50;99.90;;;;;;5084829;28;20075;-76
2023/06/05 03:12:30;;;;;;;1.92;1.30;;;11.50;99.90;;;;;;5084633;28;20052;-76
2023/06/05 03:14:57;;;;;;;1.73;1.13;;;11.50;99.90;;;;;;5085395;28;20094;-76
2023/06/05 03:17:24;;;;;;;1.90;1.17;;;11.50;99.90;;;;;;5083885;28;20338;-76
2023/06/05 03:19:51;;;;;;;1.60;1.20;;;11.50;99.90;;;;;;5066587;28;20134;-76
2023/06/05 03:22:18;;;;;;;2.50;1.02;;;11.50;99.90;;;;;;5067709;28;20308;-76
2023/06/05 03:24:45;;;;;;;2.22;1.60;;;11.50;99.90;;;;;;5084349;28;20067;-76
2023/06/05 03:27:12;;;;;;;1.38;1.10;;;11.60;99.90;;;;;;5067604;28;20052;-76
2023/06/05 03:29:39;;;;;;;1.67;1.00;;;11.70;99.90;;;;;;5064299;28;20414;-76
2023/06/05 03:32:06;;;;;;;1.95;1.08;;;11.70;99.90;;;;;;5079211;28;20052;-76
2023/06/05 03:34:36;;;;;;;2.22;1.30;;;11.70;99.90;;;;;;5065292;28;20040;-76
2023/06/05 03:37:03;;;;;;;1.45;1.05;;;11.70;99.90;;;;;;5066943;28;20562;-76
2023/06/05 03:39:30;;;;;;;1.95;1.02;;;11.70;99.90;;;;;;5083503;28;20120;-76
2023/06/05 03:41:57;;;;;;;2.03;1.50;;;11.80;99.90;;;;;;5067108;28;20055;-76
2023/06/05 03:44:24;;;;;;;2.80;1.40;;;11.80;99.90;;;;;;5083050;28;20100;-75
2023/06/05 03:46:51;;;;;;;1.60;1.13;;;11.70;99.90;;;;;;5083824;28;20048;-76
2023/06/05 03:49:20;;;;;;;1.42;1.17;;;11.80;99.90;;;;;;5064721;28;20048;-77
2023/06/05 03:51:47;;;;;;;2.10;1.10;;;11.80;99.90;;;;;;5083547;28;20054;-76
2023/06/05 03:54:16;;;;;;;1.90;1.30;;;11.80;99.90;;;;;;5084903;28;20055;-76
2023/06/05 03:56:49;;;;;;;1.58;1.10;;;11.90;99.90;;;;;;5067515;28;20763;-77
2023/06/05 03:59:19;;;;;;;2.03;1.30;;;11.90;99.90;;;;;;5083268;28;20544;-76
2023/06/05 04:01:46;;;;;;;2.05;1.20;;;11.90;99.90;;;;;;5083666;28;20483;-76
2023/06/05 04:04:13;;;;;;;1.33;1.00;;;12.00;99.90;;;;;;5064459;28;20044;-76
2023/06/05 04:06:40;;;;;;;2.08;1.30;;;11.90;99.90;;;;;;5084666;28;20051;-76
2023/06/05 04:09:11;;;;;;;1.58;1.17;;;11.80;99.90;;;;;;5083093;28;20102;-76
2023/06/05 04:11:39;;;;;;;2.88;1.73;;;11.70;99.90;;;;;;5083358;28;20086;-76
2023/06/05 04:14:07;;;;;;;1.73;1.25;;;11.70;99.90;;;;;;5082658;28;20056;-76
2023/06/05 04:16:42;;;;;;;1.88;1.20;;;11.80;99.90;;;;;;5082850;28;20086;-77
2023/06/05 04:19:11;;;;;;;1.70;1.30;;;11.70;99.90;;;;;;5065595;28;20052;-76
2023/06/05 04:21:38;;;;;;;2.17;1.17;;;11.80;99.90;;;;;;5083242;28;20071;-76
2023/06/05 04:24:07;;;;;;;1.38;0.98;;;11.80;99.90;;;;;;5083068;28;20289;-75
2023/06/05 04:26:37;;;;;;;2.35;1.48;;;11.80;99.90;;;;;;5083469;28;20398;-76
2023/06/05 04:29:06;;;;;;;1.77;1.20;;;11.90;99.90;;;;;;5082564;28;20050;-76
2023/06/05 04:31:34;;;;;;;1.33;0.98;;;11.90;99.90;;;;;;5083213;28;20055;-76
2023/06/05 04:34:01;;;;;;;1.13;0.93;;;12.00;99.90;;;;;;5065150;28;20080;-77
2023/06/05 04:36:28;;;;;;;1.60;1.00;;;12.00;99.90;;;;;;5065296;28;20105;-77
2023/06/05 04:38:56;;;;;;;1.75;1.00;;;12.10;99.90;;;;;;5065837;28;20064;-76
2023/06/05 04:41:22;;;;;;;1.55;1.02;;;12.10;99.90;;;;;;5082915;28;20086;-76
2023/06/05 04:43:50;;;;;;;2.10;0.82;;;12.10;99.90;;;;;;5082550;28;20056;-76
2023/06/05 04:46:17;;;;;;;3.35;0.98;;;12.10;99.90;;;;;;5083038;28;20532;-76
2023/06/05 04:48:45;;;;;;;1.45;1.10;;;12.00;99.90;;;;;;5081479;28;20052;-76
2023/06/05 04:51:12;;;;;;;1.42;1.15;;;12.00;99.90;;;;;;5082107;28;20055;-76
2023/06/05 04:53:41;;;;;;;1.02;0.90;;;12.10;99.90;;;;;;5082245;28;20048;-75
2023/06/05 04:56:09;;;;;;;2.60;1.45;;;12.20;99.90;;;;;;5082555;28;20135;-77
2023/06/05 04:58:36;;;;;;;1.75;1.08;;;12.20;99.90;;;;;;5081988;28;20484;-75
2023/06/05 05:01:04;;;;;;;2.42;1.30;;;12.20;99.90;;;;;;5086127;28;20635;-76
2023/06/05 05:03:32;;;;;;;1.45;1.02;;;12.20;99.90;;;;;;5078217;28;20117;-76
2023/06/05 05:05:59;;;;;;;2.45;1.17;;;12.30;99.90;;;;;;5070265;28;20063;-76
2023/06/05 05:08:27;;;;;;;1.42;0.95;;;12.30;99.90;;;;;;5065908;28;20092;-76
2023/06/05 05:10:54;;;;;;;1.38;1.00;;;12.30;99.90;;;;;;5080147;28;20048;-76
2023/06/05 05:13:21;;;;;;;1.75;1.30;;;12.20;99.90;;;;;;5064102;28;20101;-76
2023/06/05 05:15:48;;;;;;;1.27;1.10;;;12.30;99.90;;;;;;5064113;28;20063;-76
2023/06/05 05:18:16;;;;;;;1.73;1.00;;;12.30;99.90;;;;;;5061721;28;20102;-76
2023/06/05 05:20:43;;;;;;;1.90;1.42;;;12.30;99.90;;;;;;5064291;28;20134;-76
2023/06/05 05:23:09;;;;;;;1.65;1.17;;;12.30;99.90;;;;;;5082560;28;20040;-76
2023/06/05 05:25:37;;;;;;;1.92;1.25;;;12.40;99.90;;;;;;5062396;28;20056;-76
2023/06/05 05:28:04;;;;;;;1.85;1.10;;;12.40;99.90;;;;;;5081867;28;20159;-76
2023/06/05 05:30:32;;;;;;;1.83;1.08;;;12.50;99.90;;;;;;5082697;28;20056;-76
2023/06/05 05:32:59;;;;;;;2.00;1.45;;;12.50;99.90;;;;;;5061563;28;20053;-76
2023/06/05 05:35:26;;;;;;;2.00;1.20;;;12.50;99.90;;;;;;5054407;28;20116;-76
2023/06/05 05:37:52;;;;;;;1.98;1.20;;;12.50;99.90;;;;;;5080328;28;20048;-75
2023/06/05 05:40:19;;;;;;;1.80;1.20;;;12.60;99.90;;;;;;5081382;28;20043;-77
2023/06/05 05:42:46;;;;;;;1.60;1.20;;;12.70;99.90;;;;;;5078300;28;20047;-77
2023/06/05 05:45:13;;;;;;;1.30;1.10;;;12.60;99.90;;;;;;5063372;28;20047;-78
2023/06/05 05:47:40;;;;;;;2.08;1.40;;;12.70;99.90;;;;;;5079411;28;20055;-77
2023/06/05 05:50:08;;;;;;;1.50;1.10;;;12.80;99.90;;;;;;5079554;28;20107;-77
2023/06/05 05:52:34;;;;;;;1.83;1.40;;;12.80;99.90;;;;;;5076921;28;20040;-77
2023/06/05 05:55:03;;;;;;;2.88;1.67;;;12.80;99.90;;;;;;5075146;28;20048;-77
2023/06/05 05:57:30;;;;;;;2.55;1.55;;;12.80;99.90;;;;;;5082635;28;20062;-77
2023/06/05 05:59:57;;;;;;;4.05;1.92;;;12.70;99.90;;;;;;5081094;28;20113;-77
2023/06/05 06:02:24;;;;;;;3.55;2.38;;;12.60;99.90;;;;;;5075945;28;20055;-77
2023/06/05 06:04:52;;;;;;;2.17;1.60;;;12.60;99.90;;;;;;5060016;28;20048;-77
2023/06/05 06:07:19;;;;;;;2.03;1.70;;;12.70;99.90;;;;;;5075253;28;20160;-77
2023/06/05 06:09:46;;;;;;;2.28;1.40;;;12.80;99.90;;;;;;5077080;28;20040;-77
2023/06/05 06:12:13;;;;;;;3.05;1.35;;;12.80;99.90;;;;;;5071801;28;20048;-76
2023/06/05 06:14:40;;;;;;;2.60;1.33;;;12.80;99.90;;;;;;5063641;28;20151;-76
2023/06/05 06:17:10;;;;;;;1.55;1.08;;;12.80;99.90;;;;;;5074015;28;20387;-75
2023/06/05 06:19:37;;;;;;;1.50;1.20;;;12.90;99.90;;;;;;5078734;28;20132;-76
2023/06/05 06:22:11;;;;;;;1.40;1.10;;;12.90;99.90;;;;;;5075929;28;20582;-78
2023/06/05 06:24:39;;;;;;;2.42;1.30;;;12.90;99.90;;;;;;5090213;28;20444;-78
2023/06/05 06:27:06;;;;;;;2.15;1.30;;;13.00;99.90;;;;;;5080982;28;20059;-77
2023/06/05 06:29:53;;;;;;;1.33;1.02;;;13.00;99.90;;;;;;5075183;28;20519;-76
2023/06/05 06:32:21;;;;;;;2.63;1.40;;;13.00;99.90;;;;;;5078465;28;20417;-76
2023/06/05 06:34:48;;;;;;;2.35;1.30;;;13.00;99.90;;;;;;5079585;28;20158;-76
2023/06/05 06:37:15;;;;;;;1.88;1.35;;;12.90;99.90;;;;;;5081703;28;20051;-77
2023/06/05 06:39:42;;;;;;;2.30;1.70;;;12.90;99.90;;;;;;5078931;28;20121;-77
2023/06/05 06:42:10;;;;;;;2.35;1.40;;;12.90;99.90;;;;;;5080509;28;20167;-76
2023/06/05 06:44:37;;;;;;;2.58;2.00;;;13.00;99.90;;;;;;5078389;28;20164;-76
2023/06/05 06:47:04;;;;;;;2.10;1.60;;;13.20;99.90;;;;;;5078910;28;20117;-76
2023/06/05 06:49:31;;;;;;;2.72;2.10;;;13.20;99.90;;;;;;5079358;28;20408;-76
2023/06/05 06:51:58;;;;;;;3.17;1.80;;;13.20;99.90;;;;;;5063006;28;20044;-77
2023/06/05 06:54:28;;;;;;;2.00;1.52;;;13.10;99.90;;;;;;5077045;28;20052;-76
2023/06/05 06:56:55;;;;;;;2.20;1.60;;;13.10;99.90;;;;;;5078167;28;20051;-76
2023/06/05 06:59:22;;;;;;;1.40;1.10;;;13.20;99.90;;;;;;5073280;28;20059;-76
2023/06/05 07:02:17;;;;;;;2.42;1.45;;;13.30;99.90;;;;;;5069893;28;20515;-76
2023/06/05 07:04:44;;;;;;;2.35;1.55;;;13.30;99.90;;;;;;5058308;28;20052;-77
2023/06/05 07:07:14;;;;;;;2.22;1.27;;;13.20;99.90;;;;;;5042887;28;20055;-76
2023/06/05 07:09:42;;;;;;;1.70;1.20;;;13.30;99.90;;;;;;5061149;28;20047;-77
2023/06/05 07:12:12;;;;;;;1.73;1.20;;;13.40;99.90;;;;;;5077524;28;20494;-76
2023/06/05 07:14:39;;;;;;;1.83;1.30;;;13.40;99.90;;;;;;5076842;28;20044;-76
2023/06/05 07:17:07;;;;;;;1.75;1.23;;;13.30;99.90;;;;;;5041085;28;20138;-77
2023/06/05 07:19:34;;;;;;;1.35;1.15;;;13.30;99.90;;;;;;5057894;28;20058;-77
2023/06/05 07:22:04;;;;;;;1.55;1.20;;;13.30;99.90;;;;;;5061735;28;20075;-76
2023/06/05 07:24:30;;;;;;;1.33;1.10;;;13.40;99.90;;;;;;5057433;28;20053;-77
2023/06/05 07:26:59;;;;;;;2.13;1.45;;;13.50;99.90;;;;;;5061761;28;20058;-77
2023/06/05 07:29:26;;;;;;;1.95;1.20;;;13.60;99.90;;;;;;5045637;28;20047;-77
2023/06/05 07:31:55;;;;;;;1.88;1.60;;;13.50;99.90;;;;;;5074074;28;20044;-77
2023/06/05 07:34:23;;;;;;;2.15;1.63;;;13.60;99.90;;;;;;5073083;28;20103;-77
2023/06/05 07:36:51;;;;;;;2.40;1.40;;;13.60;99.90;;;;;;5075879;28;20620;-76
2023/06/05 07:39:19;;;;;;;1.33;1.15;;;13.70;99.90;;;;;;5055673;28;20044;-76
2023/06/05 07:41:46;;;;;;;1.85;1.52;;;13.90;99.90;;;;;;5060053;28;20055;-77
2023/06/05 07:44:15;;;;;;;1.50;1.10;;;13.90;99.90;;;;;;5056490;28;20098;-76
2023/06/05 07:46:42;;;;;;;2.20;1.38;;;14.00;99.90;;;;;;5075586;28;20059;-76
2023/06/05 07:49:09;;;;;;;1.92;1.25;;;13.80;99.90;;;;;;5051804;28;20047;-74
2023/06/05 07:51:37;;;;;;;1.60;1.40;;;13.90;99.90;;;;;;5071900;28;20059;-75
2023/06/05 07:54:08;;;;;;;2.15;1.73;;;14.00;99.90;;;;;;5045696;28;20518;-77
2023/06/05 07:56:35;;;;;;;2.15;1.73;;;13.90;99.90;;;;;;5065152;28;20055;-75
2023/06/05 07:59:02;;;;;;;2.15;1.70;;;13.70;99.90;;;;;;5074401;28;20101;-75
2023/06/05 08:01:30;;;;;;;1.88;1.52;;;13.60;99.90;;;;;;5066718;28;20052;-75
2023/06/05 08:03:57;;;;;;;2.55;1.85;;;13.60;99.90;;;;;;5062470;28;20054;-74
2023/06/05 08:06:24;;;;;;;2.53;1.70;;;13.60;99.90;;;;;;5071200;28;20059;-74
2023/06/05 08:08:51;;;;;;;1.63;1.45;;;13.60;99.90;;;;;;5072111;28;20158;-75
2023/06/05 08:11:19;;;;;;;2.53;1.52;;;13.80;99.90;;;;;;5045998;28;20151;-76
2023/06/05 08:13:47;;;;;;;1.83;1.30;;;13.80;99.90;;;;;;5071084;28;20040;-75
2023/06/05 08:16:15;;;;;;;1.98;1.50;;;13.90;99.90;;;;;;5072377;28;20054;-75
2023/06/05 08:18:42;;;;;;;2.13;1.55;;;13.90;99.90;;;;;;5075234;28;20044;-74
2023/06/05 08:21:09;;;;;;;2.65;1.63;;;13.90;99.90;;;;;;5053571;28;20503;-76
2023/06/05 08:23:36;;;;;;;3.35;1.35;;;14.00;99.90;;;;;;5073029;28;20047;-75
2023/06/05 08:26:10;;;;;;;1.90;1.40;;;14.00;99.90;;;;;;5073519;28;20046;-76
2023/06/05 08:28:38;;;;;;;3.88;2.08;;;14.20;99.90;;;;;;5070092;28;20104;-75
2023/06/05 08:31:06;;;;;;;3.17;1.52;;;14.30;99.90;;;;;;5073308;28;20052;-76
2023/06/05 08:33:34;;;;;;;2.33;1.70;;;14.20;99.90;;;;;;5068424;28;20055;-76
2023/06/05 08:36:01;;;;;;;2.40;1.70;;;14.30;99.90;;;;;;5038379;28;20427;-76
2023/06/05 08:38:31;;;;;;;1.80;1.50;;;14.40;99.90;;;;;;5068064;28;20063;-73
2023/06/05 08:41:02;;;;;;;1.75;1.45;;;14.40;99.90;;;;;;5074373;28;20048;-75
2023/06/05 08:43:29;;;;;;;1.42;1.15;;;14.50;99.90;;;;;;5055535;28;20679;-77
2023/06/05 08:45:57;;;;;;;2.13;1.30;;;14.60;99.90;;;;;;5061209;28;20301;-78
2023/06/05 08:48:25;;;;;;;2.10;1.30;;;14.80;99.90;;;;;;5065576;28;20070;-75
2023/06/05 08:50:52;;;;;;;2.00;1.73;;;14.90;99.90;;;;;;5066758;28;20410;-74
2023/06/05 08:53:18;;;;;;;2.55;1.23;;;14.80;99.90;;;;;;5076936;28;20048;-74
2023/06/05 08:55:49;;;;;;;2.30;1.38;;;14.90;99.90;;;;;;5067732;28;20052;-74
2023/06/05 08:58:16;;;;;;;2.80;1.65;;;14.90;99.90;;;;;;5040530;28;20051;-75
2023/06/05 09:00:42;;;;;;;1.50;1.30;;;14.80;99.90;;;;;;5078410;28;20080;-75
2023/06/05 09:03:12;;;;;;;2.28;1.55;;;14.80;99.90;;;;;;5071941;28;20140;-77
2023/06/05 09:05:39;;;;;;;2.03;1.40;;;14.90;99.90;;;;;;5064113;28;20064;-74
2023/06/05 09:08:06;;;;;;;2.95;1.88;;;15.10;99.90;;;;;;5082697;28;22056;-72
2023/06/05 09:10:32;;;;;;;3.35;2.33;;;15.20;99.90;;;;;;5066047;28;20188;-78
2023/06/05 09:13:01;;;;;;;2.60;2.28;;;15.20;99.90;;;;;;5081899;28;20056;-76
2023/06/05 09:15:29;;;;;;;2.65;2.20;;;15.20;99.90;;;;;;5051856;28;20519;-75
2023/06/05 09:18:08;;;;;;;3.10;2.25;;;15.20;99.90;;;;;;5070602;28;20048;-75
2023/06/05 09:20:39;;;;;;;2.30;1.73;;;15.20;99.90;;;;;;5070800;28;20068;-75
2023/06/05 09:23:27;;;;;;;2.83;2.05;;;15.40;99.90;;;;;;5070330;28;20071;-75
2023/06/05 09:25:58;;;;;;;2.45;1.67;;;15.30;99.90;;;;;;5073285;28;20044;-74
2023/06/05 09:28:26;;;;;;;1.70;1.60;;;15.30;99.90;;;;;;5071034;28;20066;-74
2023/06/05 09:30:54;;;;;;;1.98;1.60;;;15.40;99.90;;;;;;5075609;28;20053;-78
2023/06/05 09:33:23;;;;;;;3.33;1.70;;;15.30;99.90;;;;;;5084561;28;20066;-77
2023/06/05 09:36:12;;;;;;;2.30;1.70;;;15.50;99.90;;;;;;5069395;28;20490;-78
2023/06/05 09:38:40;;;;;;;3.67;1.77;;;15.60;99.90;;;;;;5072015;28;20407;-77
2023/06/05 09:41:14;;;;;;;1.60;1.40;;;15.40;99.90;;;;;;5061200;28;20117;-77
2023/06/05 09:43:41;;;;;;;2.33;1.60;;;15.50;99.90;;;;;;5076879;28;20048;-77
2023/06/05 09:46:12;;;;;;;2.67;1.98;;;15.60;99.90;;;;;;5060323;28;20127;-77
2023/06/05 09:48:40;;;;;;;2.25;1.48;;;15.60;99.90;;;;;;5078269;28;20538;-77
2023/06/05 09:51:32;;;;;;;2.35;1.55;;;15.60;99.90;;;;;;5078553;28;20055;-78
2023/06/05 09:53:59;;;;;;;2.30;1.65;;;15.80;99.90;;;;;;5076385;28;20127;-77
2023/06/05 09:56:26;;;;;;;1.35;1.15;;;15.90;99.90;;;;;;5079345;28;20063;-78
2023/06/05 09:58:52;;;;;;;2.20;1.63;;;16.10;99.90;;;;;;5079237;28;20044;-78
2023/06/05 10:01:22;;;;;;;1.20;1.10;;;16.20;99.90;;;;;;5076933;28;20090;-78
2023/06/05 10:04:00;;;;;;;1.35;1.25;;;16.20;99.90;;;;;;5078091;28;20048;-77
2023/06/05 10:06:28;;;;;;;1.98;1.50;;;16.30;99.90;;;;;;5062881;28;20044;-78
2023/06/05 10:08:56;;;;;;;2.40;1.63;;;16.20;99.90;;;;;;5061508;28;20517;-78
2023/06/05 10:11:24;;;;;;;2.33;1.63;;;16.00;99.90;;;;;;5081121;28;20131;-77
2023/06/05 10:13:51;;;;;;;1.60;1.17;;;16.00;99.90;;;;;;5062224;28;20083;-77
2023/06/05 10:16:18;;;;;;;1.27;1.10;;;16.10;99.90;;;;;;5080414;28;20753;-77
2023/06/05 10:18:52;;;;;;;1.45;1.10;;;16.40;99.90;;;;;;5062347;28;20127;-81
2023/06/05 10:21:20;;;;;;;1.08;0.85;;;16.80;99.90;;;;;;5081262;28;20064;-78
2023/06/05 10:23:51;;;;;;;1.25;1.02;;;17.00;99.90;;;;;;5077368;28;20048;-78
2023/06/05 10:26:41;;;;;;;1.80;1.30;;;17.10;99.90;;;;;;5056349;28;20051;-77
2023/06/05 10:29:13;;;;;;;2.03;1.50;;;17.10;99.90;;;;;;5074306;28;20131;-79
2023/06/05 10:31:53;;;;;;;2.13;1.55;;;17.30;99.90;;;;;;5076487;28;20048;-78
2023/06/05 10:34:34;;;;;;;2.40;1.65;;;17.40;99.90;;;;;;5075131;28;20081;-78
2023/06/05 10:37:21;;;;;;;2.00;1.52;;;17.30;99.90;;;;;;5079828;28;20048;-79
2023/06/05 10:39:51;;;;;;;1.73;1.30;;;17.30;99.90;;;;;;5074954;28;20427;-77
2023/06/05 10:42:28;;;;;;;1.83;1.25;;;17.30;99.90;;;;;;5078668;28;20117;-75
2023/06/05 10:44:55;;;;;;;1.38;1.23;;;17.50;99.90;;;;;;5062652;28;20563;-75
2023/06/05 10:47:35;;;;;;;1.50;1.08;;;17.70;99.90;;;;;;5070098;28;20049;-76
2023/06/05 10:50:19;;;;;;;1.73;1.40;;;17.80;99.90;;;;;;5074442;28;20831;-76
2023/06/05 10:52:47;;;;;;;1.85;1.20;;;17.90;99.40;;;;;;5080738;28;20052;-78
2023/06/05 10:55:15;;;;;;;1.52;1.20;;;17.90;99.10;;;;;;5069132;28;20044;-77
2023/06/05 10:58:00;;;;;;;1.45;1.30;;;18.00;98.80;;;;;;5076359;28;20495;-77
2023/06/05 11:00:27;;;;;;;1.50;1.20;;;17.90;99.30;;;;;;5078950;28;20137;-78
2023/06/05 11:02:58;;;;;;;2.03;1.38;;;18.10;99.10;;;;;;5076006;28;20523;-81
2023/06/05 11:05:28;;;;;;;1.77;1.40;;;18.20;98.80;;;;;;5072543;28;20052;-77
2023/06/05 11:08:10;;;;;;;1.20;1.00;;;18.20;99.00;;;;;;5058581;28;20067;-75
2023/06/05 11:10:37;;;;;;;2.07;1.40;;;18.20;98.70;;;;;;5070883;28;20105;-75
2023/06/05 11:13:07;;;;;;;2.25;1.70;;;18.10;99.00;;;;;;5064456;28;20349;-73
2023/06/05 11:15:38;;;;;;;1.90;1.27;;;18.20;98.80;;;;;;5072737;28;20078;-74
2023/06/05 11:18:27;;;;;;;1.77;1.48;;;18.00;99.00;;;;;;5075038;28;20055;-74
2023/06/05 11:20:55;;;;;;;2.10;1.15;;;17.90;99.50;;;;;;5071971;28;20467;-74
2023/06/05 11:23:21;;;;;;;1.63;1.27;;;18.10;99.60;;;;;;5077469;28;20056;-74
2023/06/05 11:25:50;;;;;;;1.63;1.30;;;18.40;99.30;;;;;;5074143;28;20083;-74
2023/06/05 11:28:37;;;;;;;1.38;1.13;;;18.40;98.20;;;;;;5075094;28;20048;-75
2023/06/05 11:31:04;;;;;;;1.35;1.20;;;18.50;98.30;;;;;;5078290;28;20044;-74
2023/06/05 11:33:31;;;;;;;2.13;1.65;;;18.50;98.40;;;;;;5072812;28;20048;-75
2023/06/05 11:36:07;;;;;;;2.42;1.50;;;18.50;98.30;;;;;;5075454;28;20177;-74
2023/06/05 11:38:34;;;;;;;1.45;1.30;;;18.40;97.70;;;;;;5058541;28;20078;-74
2023/06/05 11:41:06;;;;;;;1.20;1.10;;;18.40;98.10;;;;;;5059910;28;20109;-74
2023/06/05 11:43:33;;;;;;;2.17;1.60;;;18.50;97.90;;;;;;5072092;28;20392;-75
2023/06/05 11:46:00;;;;;;;1.77;1.33;;;18.40;97.70;;;;;;5073292;28;20149;-74
2023/06/05 11:48:29;;;;;;;1.30;1.10;;;18.50;97.50;;;;;;5055227;28;20549;-74
2023/06/05 11:51:03;;;;;;;1.52;1.17;;;18.70;98.00;;;;;;5072981;28;20051;-75
2023/06/05 11:53:31;;;;;;;1.80;1.20;;;19.10;97.40;;;;;;5075757;28;20567;-77
2023/06/05 11:58:38;;;;;;;1.60;1.13;;;19.40;96.50;;;;;;5074366;28;20071;-77
2023/06/05 12:01:17;;;;;;;2.05;1.67;;;19.50;96.70;;;;;;5076482;28;20143;-77
2023/06/05 12:03:45;;;;;;;1.40;1.10;;;19.30;97.10;;;;;;5075145;28;20127;-77
2023/06/05 12:06:13;;;;;;;1.48;1.08;;;19.40;96.70;;;;;;5075965;28;20067;-76
2023/06/05 12:08:41;;;;;;;2.38;1.58;;;19.70;97.10;;;;;;5038428;28;20140;-76
2023/06/05 12:11:25;;;;;;;1.75;1.48;;;19.40;96.60;;;;;;5074347;28;20572;-77
2023/06/05 12:13:55;;;;;;;2.20;1.83;;;19.30;96.60;;;;;;5065662;28;20663;-78
2023/06/05 12:16:33;;;;;;;2.53;1.67;;;20.20;95.80;;;;;;5067171;28;20502;-77
2023/06/05 12:19:00;;;;;;;1.88;1.45;;;20.50;95.60;;;;;;5054167;28;20051;-77
2023/06/05 12:21:40;;;;;;;2.20;1.20;;;20.40;95.40;;;;;;5052673;28;20101;-76
2023/06/05 12:24:07;;;;;;;1.38;1.10;;;20.00;95.60;;;;;;5057467;28;20554;-77
2023/06/05 12:26:53;;;;;;;1.40;1.20;;;19.70;95.20;;;;;;5055068;28;20525;-75
2023/06/05 12:29:22;;;;;;;1.20;1.00;;;20.00;95.40;;;;;;5050887;28;20080;-76
2023/06/05 12:31:49;;;;;;;1.75;1.38;;;20.50;95.30;;;;;;5073746;28;20059;-76
2023/06/05 12:34:17;;;;;;;1.58;1.30;;;21.00;93.70;;;;;;5066521;28;20128;-75
2023/06/05 12:36:45;;;;;;;1.50;1.15;;;21.10;94.30;;;;;;5067775;28;20051;-76
2023/06/05 12:39:12;;;;;;;1.20;1.08;;;21.10;94.50;;;;;;5071832;28;20083;-75
2023/06/05 12:41:41;;;;;;;1.45;1.25;;;21.00;93.90;;;;;;5065597;28;20048;-75
2023/06/05 12:44:08;;;;;;;1.38;1.27;;;20.90;94.80;;;;;;5063984;28;20144;-76
2023/06/05 12:46:35;;;;;;;1.55;1.40;;;21.20;94.40;;;;;;5070610;28;20498;-77
2023/06/05 12:49:03;;;;;;;1.75;1.50;;;22.10;93.70;;;;;;5075876;28;20132;-76
2023/06/05 12:51:30;;;;;;;1.38;1.00;;;23.30;92.10;;;;;;5075903;28;20052;-76
2023/06/05 12:53:56;;;;;;;1.17;0.90;;;23.60;91.90;;;;;;5075627;28;20051;-76
2023/06/05 12:56:28;;;;;;;1.23;1.00;;;23.40;91.20;;;;;;5075020;28;20503;-76
2023/06/05 12:58:56;;;;;;;2.50;1.00;;;22.90;91.60;;;;;;5061968;28;20503;-75